This is the latest recevied weather packets stored in our database for station/object DK6GC-10. If no packets are shown the sender has not sent any weather packets the latest 10 day(s).
| Time | Temp. | Humidity | Pressure | Rain* | Wind** | Luminosity | Snow |
|---|---|---|---|---|---|---|---|
| 1787436923 | 14.44° C | 82% | 1023.5 hPa | - | - | - | - |
| 1787436023 | 13.33° C | 90% | 1023.4 hPa | - | - | - | - |
| 1787435123 | 13.33° C | 89% | 1023.4 hPa | - | - | - | - |
| 1787434223 | 13.89° C | 85% | 1023.4 hPa | - | - | - | - |
| 1787433323 | 13.33° C | 88% | 1023.4 hPa | - | - | - | - |
| 1787432422 | 13.89° C | 85% | 1023.3 hPa | - | - | - | - |
| 1787431522 | 13.89° C | 87% | 1023.3 hPa | - | - | - | - |
| 1787430622 | 13.89° C | 88% | 1023.2 hPa | - | - | - | - |
| 1787429722 | 13.89° C | 88% | 1023.2 hPa | - | - | - | - |
| 1787428822 | 13.89° C | 85% | 1023.1 hPa | - | - | - | - |
| 1787427922 | 14.44° C | 83% | 1023 hPa | - | - | - | - |
| 1787427021 | 15° C | 85% | 1023 hPa | - | - | - | - |
| 1787426121 | 15.56° C | 78% | 1022.9 hPa | - | - | - | - |
| 1787425221 | 15.56° C | 82% | 1022.7 hPa | - | - | - | - |
| 1787424321 | 15.56° C | 83% | 1022.4 hPa | - | - | - | - |
| 1787423420 | 16.67° C | 75% | 1022.3 hPa | - | - | - | - |
| 1787422519 | 17.22° C | 75% | 1022.1 hPa | - | - | - | - |
| 1787421624 | 17.78° C | 72% | 1022 hPa | - | - | - | - |
| 1787420724 | 17.78° C | 70% | 1022.1 hPa | - | - | - | - |
| 1787419824 | 18.33° C | 69% | 1022 hPa | - | - | - | - |
| 1787418924 | 19.44° C | 65% | 1021.9 hPa | - | - | - | - |
| 1787418024 | 20° C | 59% | 1021.8 hPa | - | - | - | - |
| 1787417123 | 20.56° C | 57% | 1021.8 hPa | - | - | - | - |
| 1787416223 | 20.56° C | 53% | 1021.7 hPa | - | - | - | - |
| 1787415323 | 21.11° C | 51% | 1021.7 hPa | - | - | - | - |
* Rain since midnight (hover to see other rain measurements)
** Current wind speed in m/s (hover to see current wind gust speed)